createdAt,value
2023-05-18T00:00:06.909Z,4.50
2023-05-18T00:02:34.343Z,4.00
2023-05-18T00:05:02.437Z,3.80
2023-05-18T00:07:34.402Z,4.40
2023-05-18T00:10:01.990Z,4.20
2023-05-18T00:12:29.202Z,4.80
2023-05-18T00:14:56.240Z,4.50
2023-05-18T00:17:23.815Z,4.80
2023-05-18T00:19:50.949Z,4.40
2023-05-18T00:22:20.862Z,4.20
2023-05-18T00:24:48.224Z,4.80
2023-05-18T00:27:15.467Z,4.20
2023-05-18T00:29:42.537Z,4.20
2023-05-18T00:32:09.682Z,3.60
2023-05-18T00:34:37.464Z,3.90
2023-05-18T00:37:04.781Z,3.50
2023-05-18T00:39:31.833Z,3.80
2023-05-18T00:41:58.890Z,4.00
2023-05-18T00:44:26.141Z,5.50
2023-05-18T00:46:53.196Z,3.60
2023-05-18T00:49:20.324Z,3.70
2023-05-18T00:51:47.420Z,3.80
2023-05-18T00:54:14.328Z,3.60
2023-05-18T00:56:46.888Z,3.80
2023-05-18T00:59:14.042Z,3.80
2023-05-18T01:01:43.999Z,4.00
2023-05-18T01:04:14.581Z,3.80
2023-05-18T01:06:42.449Z,3.80
2023-05-18T01:09:11.891Z,4.50
2023-05-18T01:12:00.405Z,4.30
2023-05-18T01:14:50.077Z,3.90
2023-05-18T01:17:33.729Z,3.90
2023-05-18T01:20:21.698Z,3.90
2023-05-18T01:22:50.916Z,5.10
2023-05-18T01:25:42.985Z,4.00
2023-05-18T01:28:16.428Z,4.10
2023-05-18T01:30:43.846Z,3.80
2023-05-18T01:33:11.780Z,3.70
2023-05-18T01:35:42.026Z,4.30
2023-05-18T01:38:09.076Z,4.80
2023-05-18T01:40:41.334Z,4.30
2023-05-18T01:43:11.893Z,4.10
2023-05-18T01:45:40.555Z,4.50
2023-05-18T01:48:07.805Z,4.50
2023-05-18T01:50:39.886Z,3.70
2023-05-18T01:53:15.312Z,4.40
2023-05-18T01:55:42.361Z,4.30
2023-05-18T01:58:09.466Z,3.40
2023-05-18T02:00:36.859Z,3.50
2023-05-18T02:03:05.410Z,3.90
2023-05-18T02:05:32.908Z,3.90
2023-05-18T02:08:00.091Z,3.90
2023-05-18T02:10:27.611Z,4.50
2023-05-18T02:12:54.783Z,4.30
2023-05-18T02:15:22.515Z,4.10
2023-05-18T02:17:50.221Z,4.60
2023-05-18T02:20:18.626Z,4.30
2023-05-18T02:22:46.472Z,4.50
2023-05-18T02:25:13.568Z,4.60
2023-05-18T02:27:40.654Z,5.00
2023-05-18T02:30:09.111Z,4.80
2023-05-18T02:32:39.263Z,4.20
2023-05-18T02:35:07.387Z,4.30
2023-05-18T02:37:40.190Z,4.60
2023-05-18T02:40:10.894Z,4.10
2023-05-18T02:42:37.961Z,3.80
2023-05-18T02:45:05.610Z,4.10
2023-05-18T02:47:33.137Z,3.80
2023-05-18T02:50:00.340Z,4.00
2023-05-18T02:52:28.086Z,4.80
2023-05-18T02:54:56.487Z,3.90
2023-05-18T02:57:47.167Z,3.90
2023-05-18T03:00:17.848Z,4.00
2023-05-18T03:02:48.725Z,4.00
2023-05-18T03:05:17.109Z,4.00
2023-05-18T03:07:51.103Z,3.80
2023-05-18T03:10:20.114Z,4.40
2023-05-18T03:12:48.182Z,3.40
2023-05-18T03:15:16.870Z,3.90
2023-05-18T03:17:44.473Z,4.10
2023-05-18T03:20:14.805Z,4.00
2023-05-18T03:22:42.020Z,3.40
2023-05-18T03:25:09.155Z,3.70
2023-05-18T03:27:38.138Z,4.10
2023-05-18T03:30:06.160Z,3.60
2023-05-18T03:32:34.292Z,3.60
2023-05-18T03:35:02.151Z,3.60
2023-05-18T03:37:29.555Z,3.80
2023-05-18T03:40:01.077Z,3.70
2023-05-18T03:42:28.314Z,3.60
2023-05-18T03:44:56.790Z,3.80
2023-05-18T03:47:24.960Z,3.90
2023-05-18T03:49:52.009Z,3.70
2023-05-18T03:52:22.764Z,3.60
2023-05-18T03:54:50.232Z,3.70
2023-05-18T03:57:17.555Z,3.60
2023-05-18T03:59:45.746Z,3.70
2023-05-18T04:02:13.486Z,4.10
2023-05-18T04:04:42.276Z,4.30
2023-05-18T04:07:09.427Z,3.60
2023-05-18T04:09:36.610Z,4.40
2023-05-18T04:12:04.832Z,3.70
2023-05-18T04:14:35.319Z,3.40
2023-05-18T04:17:06.633Z,4.10
2023-05-18T04:19:34.479Z,3.70
2023-05-18T04:22:05.040Z,3.90
2023-05-18T04:24:33.086Z,3.80
2023-05-18T04:27:01.876Z,4.20
2023-05-18T04:29:29.600Z,4.10
2023-05-18T04:32:03.392Z,4.50
2023-05-18T04:34:31.529Z,4.00
2023-05-18T04:36:59.091Z,4.10
2023-05-18T04:39:27.654Z,4.20
2023-05-18T04:42:01.259Z,4.40
2023-05-18T04:44:29.035Z,4.10
2023-05-18T04:46:59.442Z,4.70
2023-05-18T04:49:28.410Z,4.80
2023-05-18T04:51:56.414Z,4.80
2023-05-18T04:54:24.414Z,4.30
2023-05-18T04:56:51.929Z,4.70
2023-05-18T04:59:19.294Z,4.70
2023-05-18T05:01:47.020Z,4.60
2023-05-18T05:04:14.401Z,4.70
2023-05-18T05:06:41.594Z,5.40
2023-05-18T05:09:08.699Z,5.10
2023-05-18T05:11:35.774Z,4.80
2023-05-18T05:14:03.340Z,4.50
2023-05-18T05:16:31.212Z,5.20
2023-05-18T05:18:58.572Z,5.70
2023-05-18T05:21:25.973Z,5.70
2023-05-18T05:23:52.887Z,5.40
2023-05-18T05:26:20.401Z,5.60
2023-05-18T05:28:48.047Z,5.10
2023-05-18T05:31:15.937Z,5.40
2023-05-18T05:33:45.508Z,5.60
2023-05-18T05:36:13.681Z,5.90
2023-05-18T05:38:41.378Z,5.30
2023-05-18T05:41:08.714Z,5.50
2023-05-18T05:43:36.059Z,4.80
2023-05-18T05:46:03.116Z,6.00
2023-05-18T05:48:30.670Z,5.90
2023-05-18T05:50:58.022Z,5.50
2023-05-18T05:53:25.140Z,6.00
2023-05-18T05:55:53.024Z,6.10
2023-05-18T05:58:21.109Z,6.60
2023-05-18T06:00:54.904Z,6.40
2023-05-18T06:03:22.813Z,7.10
2023-05-18T06:05:50.328Z,6.60
2023-05-18T06:08:19.730Z,6.50
2023-05-18T06:10:48.015Z,6.50
2023-05-18T06:13:16.075Z,6.60
2023-05-18T06:15:48.269Z,7.20
2023-05-18T06:18:15.440Z,7.00
2023-05-18T06:20:42.649Z,6.80
2023-05-18T06:23:10.311Z,7.80
2023-05-18T06:25:56.198Z,7.10
2023-05-18T06:28:31.944Z,7.30
2023-05-18T06:31:21.977Z,6.90
2023-05-18T06:33:59.943Z,6.80
2023-05-18T06:36:27.091Z,7.10
2023-05-18T06:38:54.339Z,7.20
2023-05-18T06:41:22.505Z,7.60
2023-05-18T06:43:50.888Z,8.00
2023-05-18T06:46:38.518Z,7.20
2023-05-18T06:49:12.738Z,7.50
2023-05-18T06:51:40.192Z,8.10
2023-05-18T06:54:07.557Z,7.20
2023-05-18T06:56:34.925Z,7.50
2023-05-18T06:59:01.944Z,7.50
2023-05-18T07:01:29.682Z,7.80
2023-05-18T07:03:59.760Z,8.10
2023-05-18T07:06:26.874Z,8.20
2023-05-18T07:08:53.922Z,8.40
2023-05-18T07:11:21.274Z,8.50
2023-05-18T07:13:48.328Z,8.10
2023-05-18T07:16:15.629Z,8.50
2023-05-18T07:18:42.838Z,8.00
2023-05-18T07:21:10.071Z,8.10
2023-05-18T07:23:37.324Z,7.70
2023-05-18T07:26:04.475Z,8.10
2023-05-18T07:28:31.644Z,8.90
2023-05-18T07:30:58.779Z,8.40
2023-05-18T07:33:25.918Z,7.80
2023-05-18T07:35:52.893Z,8.00
2023-05-18T07:38:20.526Z,7.40
2023-05-18T07:40:47.571Z,6.90
2023-05-18T07:43:14.820Z,6.90
2023-05-18T07:45:41.986Z,7.50
2023-05-18T07:48:09.102Z,7.10
2023-05-18T07:50:36.332Z,7.10
2023-05-18T07:53:03.301Z,7.60
2023-05-18T07:55:30.651Z,7.50
2023-05-18T07:58:01.208Z,7.20
2023-05-18T08:00:28.344Z,8.10
2023-05-18T08:02:55.864Z,7.70
2023-05-18T08:05:23.569Z,7.60
2023-05-18T08:07:50.729Z,7.30
2023-05-18T08:10:17.868Z,8.30
2023-05-18T08:12:44.912Z,8.30
2023-05-18T08:16:54.085Z,8.30
2023-05-18T08:19:21.342Z,8.10
2023-05-18T08:21:48.763Z,8.20
2023-05-18T08:24:15.914Z,7.80
2023-05-18T08:26:43.089Z,8.20
2023-05-18T08:29:10.517Z,8.20
2023-05-18T08:31:38.520Z,7.30
2023-05-18T08:34:06.344Z,7.90
2023-05-18T08:36:34.447Z,8.20
2023-05-18T08:39:03.101Z,8.40
2023-05-18T08:41:31.310Z,8.00
2023-05-18T08:44:14.374Z,8.40
2023-05-18T08:46:42.835Z,8.70
2023-05-18T08:49:11.064Z,7.90
2023-05-18T08:51:38.325Z,8.70
2023-05-18T08:54:06.521Z,11.30
2023-05-18T08:56:34.754Z,8.30
2023-05-18T08:59:05.207Z,8.30
2023-05-18T09:01:33.004Z,8.80
2023-05-18T09:04:02.850Z,8.50
2023-05-18T09:06:29.906Z,8.30
2023-05-18T09:08:59.924Z,9.10
2023-05-18T09:11:28.201Z,8.50
2023-05-18T09:13:55.668Z,8.60
2023-05-18T09:16:22.813Z,8.40
2023-05-18T09:18:50.093Z,8.70
2023-05-18T09:21:17.202Z,9.50
2023-05-18T09:23:44.348Z,8.90
2023-05-18T09:26:12.906Z,10.80
2023-05-18T09:28:43.662Z,9.20
2023-05-18T09:31:14.131Z,8.50
2023-05-18T09:33:41.762Z,9.30
2023-05-18T09:36:09.623Z,8.90
2023-05-18T09:38:38.378Z,8.90
2023-05-18T09:41:10.470Z,9.20
2023-05-18T09:43:37.373Z,8.50
2023-05-18T09:46:08.462Z,8.50
2023-05-18T09:48:36.989Z,8.10
2023-05-18T09:51:07.326Z,9.40
2023-05-18T09:53:38.261Z,8.70
2023-05-18T09:56:12.200Z,9.50
2023-05-18T09:58:39.969Z,9.40
2023-05-18T10:01:07.152Z,8.90
2023-05-18T10:03:37.965Z,8.80
2023-05-18T10:06:06.901Z,8.40
2023-05-18T10:08:35.012Z,9.00
2023-05-18T10:11:02.211Z,7.90
2023-05-18T10:13:31.746Z,8.70
2023-05-18T10:16:06.048Z,9.40
2023-05-18T10:18:35.729Z,8.90
2023-05-18T10:21:04.582Z,8.70
2023-05-18T10:23:32.956Z,8.50
2023-05-18T10:26:00.142Z,8.70
2023-05-18T10:28:47.625Z,8.20
2023-05-18T10:31:16.139Z,8.50
2023-05-18T10:33:43.264Z,8.70
2023-05-18T10:36:11.141Z,8.90
2023-05-18T10:38:43.686Z,8.70
2023-05-18T10:41:10.751Z,8.90
2023-05-18T10:43:37.900Z,8.20
2023-05-18T10:46:05.739Z,8.60
2023-05-18T10:48:32.839Z,9.20
2023-05-18T10:50:59.823Z,9.30
2023-05-18T10:53:30.113Z,9.70
2023-05-18T10:55:57.235Z,17.00
2023-05-18T10:58:25.882Z,8.80
2023-05-18T11:01:01.792Z,9.30
2023-05-18T11:03:29.069Z,9.30
2023-05-18T11:06:06.964Z,9.00
2023-05-18T11:08:34.303Z,8.80
2023-05-18T11:11:03.369Z,9.00
2023-05-18T11:13:31.744Z,9.60
2023-05-18T11:15:59.681Z,22.30
2023-05-18T11:18:46.100Z,8.90
2023-05-18T11:21:25.760Z,8.80
2023-05-18T11:24:24.251Z,9.20
2023-05-18T11:26:56.074Z,8.90
2023-05-18T11:29:23.360Z,8.40
2023-05-18T11:31:54.807Z,9.20
2023-05-18T11:34:45.316Z,10.70
2023-05-18T11:37:14.404Z,8.90
2023-05-18T11:39:51.669Z,9.20
2023-05-18T11:42:25.504Z,9.10
2023-05-18T11:44:54.321Z,8.60
2023-05-18T11:47:21.414Z,8.90
2023-05-18T11:49:49.590Z,8.10
2023-05-18T11:52:20.220Z,9.20
2023-05-18T11:54:57.616Z,9.50
2023-05-18T11:57:26.546Z,9.50
2023-05-18T11:59:57.793Z,8.80
2023-05-18T12:02:26.907Z,8.60
2023-05-18T12:05:07.237Z,8.20
2023-05-18T12:07:35.780Z,9.20
2023-05-18T12:10:13.375Z,9.10
2023-05-18T12:12:41.238Z,8.70
2023-05-18T12:15:09.756Z,8.10
2023-05-18T12:17:44.198Z,8.00
2023-05-18T12:20:19.247Z,8.60
2023-05-18T12:22:50.447Z,8.00
2023-05-18T12:25:17.503Z,7.80
2023-05-18T12:27:45.429Z,7.60
2023-05-18T12:30:15.858Z,7.50
2023-05-18T12:32:53.697Z,7.00
2023-05-18T12:35:24.800Z,7.90
2023-05-18T12:37:51.992Z,8.00
2023-05-18T12:40:19.973Z,7.70
2023-05-18T12:43:00.380Z,7.70
2023-05-18T12:45:28.511Z,7.50
2023-05-18T12:47:56.524Z,7.60
2023-05-18T12:50:26.673Z,7.40
2023-05-18T12:52:55.058Z,7.10
2023-05-18T12:55:22.636Z,7.70
2023-05-18T12:58:04.362Z,7.60
2023-05-18T13:00:35.408Z,7.40
2023-05-18T13:03:13.628Z,8.30
2023-05-18T13:05:44.319Z,7.40
2023-05-18T13:08:16.486Z,6.70
2023-05-18T13:10:44.375Z,7.30
2023-05-18T13:13:16.382Z,7.10
2023-05-18T13:15:43.854Z,7.30
2023-05-18T13:18:12.193Z,6.90
2023-05-18T13:20:42.335Z,7.10
2023-05-18T13:23:14.352Z,7.60
2023-05-18T13:25:42.440Z,7.40
2023-05-18T13:28:12.552Z,7.60
2023-05-18T13:30:40.420Z,6.30
2023-05-18T13:33:08.878Z,7.20
2023-05-18T13:35:42.095Z,7.00
2023-05-18T13:38:13.577Z,6.90
2023-05-18T13:40:41.191Z,7.10
2023-05-18T13:43:10.889Z,6.80
2023-05-18T13:45:39.978Z,6.30
2023-05-18T13:48:10.152Z,6.20
2023-05-18T13:50:38.224Z,6.80
2023-05-18T13:53:05.345Z,8.10
2023-05-18T13:55:33.682Z,6.90
2023-05-18T13:58:01.575Z,6.30
2023-05-18T14:00:28.733Z,6.30
2023-05-18T14:02:56.899Z,5.80
2023-05-18T14:05:24.584Z,5.90
2023-05-18T14:07:54.709Z,6.00
2023-05-18T14:10:21.890Z,6.00
2023-05-18T14:12:49.285Z,9.30
2023-05-18T14:15:16.440Z,7.60
2023-05-18T14:17:44.568Z,7.00
2023-05-18T14:20:12.278Z,7.40
2023-05-18T14:22:39.400Z,7.10
2023-05-18T14:25:07.102Z,7.00
2023-05-18T14:27:34.392Z,6.50
2023-05-18T14:30:01.679Z,7.90
2023-05-18T14:32:28.641Z,7.80
2023-05-18T14:34:58.155Z,6.30
2023-05-18T14:37:25.706Z,5.50
2023-05-18T14:39:52.838Z,6.80
2023-05-18T14:42:20.049Z,5.80
2023-05-18T14:44:47.312Z,5.70
2023-05-18T14:47:14.541Z,6.60
2023-05-18T14:49:41.647Z,6.20
2023-05-18T14:52:08.581Z,6.40
2023-05-18T14:54:36.881Z,6.30
2023-05-18T14:57:04.652Z,5.90
2023-05-18T14:59:31.773Z,5.90
2023-05-18T15:01:58.943Z,6.30
2023-05-18T15:04:26.173Z,6.70
2023-05-18T15:06:53.338Z,5.90
2023-05-18T15:09:20.775Z,7.00
2023-05-18T15:11:47.714Z,6.50
2023-05-18T15:14:14.863Z,7.30
2023-05-18T15:16:42.554Z,6.70
2023-05-18T15:19:09.794Z,7.20
2023-05-18T15:21:36.838Z,6.60
2023-05-18T15:24:03.974Z,7.00
2023-05-18T15:26:31.120Z,6.60
2023-05-18T15:28:58.171Z,6.80
2023-05-18T15:31:25.343Z,6.80
2023-05-18T15:33:52.480Z,7.10
2023-05-18T15:36:21.398Z,7.20
2023-05-18T15:38:48.513Z,7.00
2023-05-18T15:41:15.561Z,7.50
2023-05-18T15:43:43.792Z,6.50
2023-05-18T15:46:11.137Z,6.50
2023-05-18T15:48:38.351Z,5.90
2023-05-18T15:51:05.996Z,6.00
2023-05-18T15:53:34.068Z,7.40
2023-05-18T15:56:02.364Z,6.30
2023-05-18T15:58:30.404Z,6.60
2023-05-18T16:00:57.612Z,10.70
2023-05-18T16:03:24.886Z,6.40
2023-05-18T16:05:52.000Z,6.50
2023-05-18T16:08:20.659Z,6.80
2023-05-18T16:10:48.207Z,6.50
2023-05-18T16:13:15.760Z,6.90
2023-05-18T16:15:43.022Z,6.10
2023-05-18T16:18:10.755Z,6.30
2023-05-18T16:20:38.641Z,6.40
2023-05-18T16:23:05.833Z,6.40
2023-05-18T16:25:32.970Z,6.10
2023-05-18T16:28:00.112Z,6.30
2023-05-18T16:30:27.349Z,5.80
2023-05-18T16:32:54.532Z,6.40
2023-05-18T16:35:21.787Z,6.70
2023-05-18T16:37:48.888Z,6.70
2023-05-18T16:40:16.134Z,7.10
2023-05-18T16:42:47.438Z,7.50
2023-05-18T16:45:15.084Z,7.70
2023-05-18T16:47:42.344Z,9.60
2023-05-18T16:50:10.370Z,12.10
2023-05-18T16:52:37.407Z,33.50
2023-05-18T16:55:04.973Z,29.30
2023-05-18T16:57:33.975Z,30.50
2023-05-18T17:00:02.774Z,48.70
2023-05-18T17:02:30.325Z,48.60
2023-05-18T17:04:59.218Z,51.40
2023-05-18T17:07:26.343Z,39.30
2023-05-18T17:09:53.292Z,48.90
2023-05-18T17:12:20.636Z,43.30
2023-05-18T17:14:50.603Z,39.50
2023-05-18T17:17:19.248Z,40.10
2023-05-18T17:19:46.222Z,35.20
2023-05-18T17:22:13.215Z,31.00
2023-05-18T17:24:40.279Z,28.10
2023-05-18T17:27:07.281Z,30.60
2023-05-18T17:29:34.468Z,26.50
2023-05-18T17:32:01.852Z,23.20
2023-05-18T17:34:30.661Z,19.30
2023-05-18T17:36:58.767Z,17.50
2023-05-18T17:39:26.753Z,22.90
2023-05-18T17:41:54.494Z,17.60
2023-05-18T17:44:21.873Z,20.10
2023-05-18T17:46:49.221Z,18.50
2023-05-18T17:49:16.273Z,18.90
2023-05-18T17:51:43.570Z,20.90
2023-05-18T17:54:10.979Z,19.20
2023-05-18T17:56:38.229Z,15.80
2023-05-18T17:59:05.897Z,15.20
2023-05-18T18:01:33.665Z,12.30
2023-05-18T18:04:01.217Z,11.10
2023-05-18T18:06:28.264Z,14.00
2023-05-18T18:09:00.217Z,14.80
2023-05-18T18:11:27.779Z,13.30
2023-05-18T18:13:54.932Z,13.80
2023-05-18T18:16:22.475Z,16.10
2023-05-18T18:18:50.830Z,15.40
2023-05-18T18:21:18.133Z,14.30
2023-05-18T18:23:45.147Z,13.50
2023-05-18T18:26:12.207Z,13.50
2023-05-18T18:28:39.254Z,15.20
2023-05-18T18:31:06.252Z,13.30
2023-05-18T18:33:33.679Z,14.20
2023-05-18T18:36:00.946Z,14.60
2023-05-18T18:38:29.068Z,14.90
2023-05-18T18:41:04.452Z,12.30
2023-05-18T18:43:31.987Z,12.80
2023-05-18T18:45:59.549Z,11.00
2023-05-18T18:48:26.984Z,10.90
2023-05-18T18:50:54.245Z,11.60
2023-05-18T18:53:21.529Z,10.40
2023-05-18T18:55:48.760Z,11.20
2023-05-18T18:58:16.310Z,11.30
2023-05-18T19:00:43.364Z,12.40
2023-05-18T19:03:10.752Z,11.60
2023-05-18T19:05:38.393Z,13.10
2023-05-18T19:08:06.035Z,13.30
2023-05-18T19:10:34.613Z,11.60
2023-05-18T19:13:05.957Z,14.70
2023-05-18T19:15:34.105Z,40.50
2023-05-18T19:18:01.497Z,41.30
2023-05-18T19:20:28.841Z,30.00
2023-05-18T19:22:56.139Z,25.60
2023-05-18T19:25:26.585Z,26.60
2023-05-18T19:27:54.246Z,16.90
2023-05-18T19:30:33.933Z,12.30
2023-05-18T19:33:01.488Z,11.30
2023-05-18T19:35:29.230Z,11.20
2023-05-18T19:37:56.544Z,12.10
2023-05-18T19:40:27.346Z,11.00
2023-05-18T19:42:56.501Z,11.40
2023-05-18T19:45:24.311Z,11.30
2023-05-18T19:47:53.635Z,10.20
2023-05-18T19:50:21.410Z,10.40
2023-05-18T19:52:50.357Z,10.10
2023-05-18T19:55:18.049Z,9.70
2023-05-18T19:57:45.201Z,11.20
2023-05-18T20:00:12.965Z,11.30
2023-05-18T20:02:40.492Z,10.50
2023-05-18T20:05:08.598Z,11.20
2023-05-18T20:07:36.109Z,10.10
2023-05-18T20:10:03.307Z,10.50
2023-05-18T20:12:32.186Z,10.80
2023-05-18T20:14:59.954Z,11.40
2023-05-18T20:17:27.364Z,10.60
2023-05-18T20:19:54.557Z,10.40
2023-05-18T20:22:21.822Z,9.90
2023-05-18T20:24:49.983Z,10.90
2023-05-18T20:27:17.057Z,11.20
2023-05-18T20:29:44.174Z,10.60
2023-05-18T20:35:01.417Z,10.70
2023-05-18T20:37:28.867Z,10.70
2023-05-18T20:39:58.041Z,9.70
2023-05-18T20:42:30.339Z,11.50
2023-05-18T20:44:59.357Z,11.60
2023-05-18T20:47:26.534Z,12.20
2023-05-18T20:49:53.733Z,10.50
2023-05-18T20:52:20.872Z,10.40
2023-05-18T20:54:48.535Z,11.30
2023-05-18T20:57:15.765Z,11.30
2023-05-18T20:59:42.953Z,11.20
2023-05-18T21:02:09.989Z,11.20
2023-05-18T21:04:37.133Z,11.50
2023-05-18T21:07:05.727Z,11.50
2023-05-18T21:09:34.234Z,11.20
2023-05-18T21:12:01.555Z,10.20
2023-05-18T21:14:29.045Z,14.40
2023-05-18T21:16:56.462Z,13.30
2023-05-18T21:19:24.055Z,15.70
2023-05-18T21:21:51.379Z,12.70
2023-05-18T21:24:18.900Z,11.20
2023-05-18T21:26:46.296Z,11.90
2023-05-18T21:29:13.366Z,12.20
2023-05-18T21:31:40.695Z,11.40
2023-05-18T21:34:08.769Z,12.20
2023-05-18T21:36:35.728Z,13.20
2023-05-18T21:39:06.240Z,13.40
2023-05-18T21:41:35.475Z,12.30
2023-05-18T21:44:02.377Z,11.70
2023-05-18T21:46:29.411Z,11.90
2023-05-18T21:48:57.192Z,12.90
2023-05-18T21:51:25.476Z,11.00
2023-05-18T21:53:52.822Z,12.10
2023-05-18T21:56:20.110Z,11.00
2023-05-18T21:58:47.227Z,12.10
2023-05-18T22:01:19.939Z,12.50
2023-05-18T22:03:51.042Z,12.00
2023-05-18T22:06:21.068Z,11.90
2023-05-18T22:08:48.204Z,11.70
2023-05-18T22:11:15.692Z,12.10
2023-05-18T22:13:42.702Z,11.00
2023-05-18T22:16:09.656Z,11.50
2023-05-18T22:18:36.646Z,11.30
2023-05-18T22:21:04.313Z,12.00
2023-05-18T22:23:31.412Z,11.50
2023-05-18T22:25:58.461Z,11.40
2023-05-18T22:28:25.605Z,11.40
2023-05-18T22:30:52.748Z,11.70
2023-05-18T22:33:21.359Z,11.30
2023-05-18T22:35:48.814Z,11.50
2023-05-18T22:38:16.954Z,11.40
2023-05-18T22:40:45.238Z,12.80
2023-05-18T22:43:12.284Z,12.00
2023-05-18T22:45:39.325Z,11.60
2023-05-18T22:48:06.604Z,12.10
2023-05-18T22:50:34.888Z,11.30
2023-05-18T22:53:02.678Z,11.40
2023-05-18T22:55:30.418Z,11.40
2023-05-18T22:57:57.535Z,12.80
2023-05-18T23:00:24.676Z,11.30
2023-05-18T23:02:53.252Z,11.30
2023-05-18T23:05:20.594Z,13.50
2023-05-18T23:07:48.381Z,12.70
2023-05-18T23:10:15.940Z,11.50
2023-05-18T23:12:45.675Z,11.50
2023-05-18T23:15:12.634Z,12.20
2023-05-18T23:17:39.761Z,11.50
2023-05-18T23:20:08.392Z,11.10
2023-05-18T23:22:35.607Z,11.90
2023-05-18T23:25:04.701Z,13.00
2023-05-18T23:27:32.337Z,12.60
2023-05-18T23:29:59.400Z,11.70
2023-05-18T23:32:27.035Z,11.70
2023-05-18T23:34:56.431Z,12.10
2023-05-18T23:37:23.894Z,10.90
2023-05-18T23:39:52.131Z,11.30
2023-05-18T23:42:19.673Z,12.50
2023-05-18T23:44:49.423Z,11.20
2023-05-18T23:47:17.107Z,11.70
2023-05-18T23:49:45.551Z,11.30
2023-05-18T23:52:13.855Z,11.40
2023-05-18T23:54:42.130Z,11.80
2023-05-18T23:57:10.107Z,11.80
2023-05-18T23:59:38.273Z,11.60
